Portada
METAR-TAF:

METAR-TAF

Aeropuertos :

Aeropuerto Internacional de Moscú-Sheremétievo

Moscú-Sheremetyevo, Rusia

latitud: 55-58N, longitud: 037-25E, altitud: 190 m

Observación

El informe se hizo hace 20 minutos, a las 20:00 UTC
Viento 12 kt del sur-sureste
Temperatura -3°C
Humedad 39%
Presión 1031 hPa
Visibilidad 10 km o más
sin nubes por debajo de 1500 m y sin presencia de cumulonimbus.

METAR: UUEE 132000Z 16006MPS CAVOK M03/M15 Q1031 WS R24L R24L/150051 R24C/150045 NOSIG

Hora: 23:20 (20:20 UTC)

Pronóstico

El informe se hizo hace 3 horas y 20 minutos, a las 17:00 UTC
Pronóstico válido del 13 a las 18 UTC al 14 a las 18 UTC
Viento 12 kt del sur con ráfagas de 23 kt
Visibilidad 10 km o más
sin nubes por debajo de 1500 m y sin presencia de cumulonimbus.

TAF: UUEE 131700Z 1318/1418 18006G12MPS CAVOK TXM00/1412Z TNM05/1403Z

Observaciones y pronósticos meteorológicos de más de 4000 aeropuertos (mensajes METAR y TAF).

Los puntos amarillos y rojos representan las estaciones disponibles.

Ponga el ratón en el punto deseado para ver el nombre de la estación.

Haga clic para ver las observaciones y los pronósticos meteorológicos.

Para cambiar el mapa : haga clic en los botones verdes con una cruz de color negro para hacer un zoom, en el botón verde con un guión para alejar o en las flechas verdes para mapas adyacentes.


METAR-TAF: